Time;durP1;ratioP1;P1;durP2;ratioP2;P2;SDS_P1;SDS_P2;PMS_P1;PMS_P2;Temp;Humidity;BMP_temperature;BMP_pressure;BME280_temperature;BME280_humidity;BME280_pressure;Samples;Min_cycle;Max_cycle;Signal;HPM_P1;HPM_P2
2023/07/29 00:01:51;;;;;;;8.15;3.38;;;;;;;;;;7395596;19;20007;-74
2023/07/29 00:04:17;;;;;;;5.78;3.22;;;;;;;;;;7371018;19;20007;-75
2023/07/29 00:06:42;;;;;;;5.72;3.17;;;;;;;;;;7373738;19;20473;-74
2023/07/29 00:09:07;;;;;;;9.23;3.30;;;;;;;;;;7373543;19;20103;-74
2023/07/29 00:11:33;;;;;;;6.65;3.25;;;;;;;;;;7374621;19;20006;-73
2023/07/29 00:14:00;;;;;;;5.32;3.38;;;;;;;;;;7379111;19;20003;-75
2023/07/29 00:16:26;;;;;;;6.28;3.60;;;;;;;;;;7398399;19;20251;-74
2023/07/29 00:18:51;;;;;;;6.45;3.65;;;;;;;;;;7377791;19;20026;-75
2023/07/29 00:21:16;;;;;;;6.90;3.60;;;;;;;;;;7372828;19;20010;-75
2023/07/29 00:23:42;;;;;;;8.02;3.40;;;;;;;;;;7372046;19;20006;-74
2023/07/29 00:26:07;;;;;;;5.57;3.42;;;;;;;;;;7373129;19;20002;-74
2023/07/29 00:28:33;;;;;;;6.88;3.53;;;;;;;;;;7397716;19;20002;-74
2023/07/29 00:30:58;;;;;;;5.45;3.47;;;;;;;;;;7375793;19;20038;-74
2023/07/29 00:33:23;;;;;;;8.10;3.90;;;;;;;;;;7375386;19;20089;-75
2023/07/29 00:35:49;;;;;;;5.93;3.50;;;;;;;;;;7374022;19;20006;-75
2023/07/29 00:38:14;;;;;;;8.93;4.13;;;;;;;;;;7376292;19;20032;-74
2023/07/29 00:40:39;;;;;;;7.80;4.00;;;;;;;;;;7400439;19;20006;-74
2023/07/29 00:43:05;;;;;;;6.35;3.50;;;;;;;;;;7377629;19;20003;-75
2023/07/29 00:45:32;;;;;;;6.35;3.50;;;;;;;;;;7377779;19;20006;-74
2023/07/29 00:47:58;;;;;;;5.43;3.60;;;;;;;;;;7376139;19;20455;-74
2023/07/29 00:50:23;;;;;;;6.15;3.63;;;;;;;;;;7373000;19;20014;-74
2023/07/29 00:52:49;;;;;;;6.03;3.50;;;;;;;;;;7393040;19;20023;-74
2023/07/29 00:55:15;;;;;;;6.68;3.67;;;;;;;;;;7368268;19;20021;-74
2023/07/29 00:57:42;;;;;;;7.13;3.58;;;;;;;;;;7370306;19;20078;-74
2023/07/29 01:00:08;;;;;;;5.50;3.95;;;;;;;;;;7369651;19;20476;-74
2023/07/29 01:02:34;;;;;;;6.00;3.60;;;;;;;;;;7372505;19;20021;-75
2023/07/29 01:05:00;;;;;;;7.00;3.85;;;;;;;;;;7370679;19;20113;-75
2023/07/29 01:07:33;;;;;;;7.18;3.60;;;;;;;;;;7394738;19;21017;-74
2023/07/29 01:10:03;;;;;;;6.18;3.67;;;;;;;;;;7371905;19;20682;-75
2023/07/29 01:12:50;;;;;;;5.03;3.43;;;;;;;;;;7373374;19;20522;-74
2023/07/29 01:15:21;;;;;;;7.13;3.45;;;;;;;;;;7371237;19;20018;-74
2023/07/29 01:17:49;;;;;;;6.03;3.58;;;;;;;;;;7371665;19;20484;-74
2023/07/29 01:20:17;;;;;;;6.95;3.60;;;;;;;;;;7370979;19;20390;-74
2023/07/29 01:22:42;;;;;;;6.57;4.05;;;;;;;;;;7392678;19;20003;-73
2023/07/29 01:25:08;;;;;;;7.85;3.97;;;;;;;;;;7370325;19;20007;-73
2023/07/29 01:27:33;;;;;;;5.60;4.05;;;;;;;;;;7376525;19;20489;-73
2023/07/29 01:30:00;;;;;;;8.15;4.25;;;;;;;;;;7380354;19;20014;-73
2023/07/29 01:32:40;;;;;;;6.75;4.22;;;;;;;;;;7379662;19;20006;-73
2023/07/29 01:35:11;;;;;;;6.67;4.10;;;;;;;;;;7370865;19;20448;-73
2023/07/29 01:37:39;;;;;;;11.65;4.85;;;;;;;;;;7391398;19;20247;-73
2023/07/29 01:40:06;;;;;;;6.60;4.53;;;;;;;;;;7369343;19;20010;-74
2023/07/29 01:42:32;;;;;;;8.82;4.88;;;;;;;;;;7371494;19;20046;-73
2023/07/29 01:44:57;;;;;;;6.97;4.80;;;;;;;;;;7370062;19;20003;-73
2023/07/29 01:47:22;;;;;;;7.93;5.28;;;;;;;;;;7370856;19;20117;-74
2023/07/29 01:49:48;;;;;;;8.50;5.43;;;;;;;;;;7392211;19;20344;-74
2023/07/29 01:52:13;;;;;;;7.45;5.15;;;;;;;;;;7369181;19;20141;-74
2023/07/29 01:54:39;;;;;;;7.22;5.43;;;;;;;;;;7366559;19;20014;-74
2023/07/29 01:57:04;;;;;;;8.40;5.25;;;;;;;;;;7369056;19;20043;-74
2023/07/29 01:59:29;;;;;;;7.22;5.00;;;;;;;;;;7368703;19;20100;-74
2023/07/29 02:01:54;;;;;;;8.95;5.10;;;;;;;;;;7390877;19;20003;-74
2023/07/29 02:04:20;;;;;;;7.38;4.97;;;;;;;;;;7369926;19;20096;-74
2023/07/29 02:06:45;;;;;;;8.50;5.28;;;;;;;;;;7371083;19;20094;-73
2023/07/29 02:09:10;;;;;;;8.38;5.53;;;;;;;;;;7369471;19;20027;-74
2023/07/29 02:11:36;;;;;;;8.23;5.00;;;;;;;;;;7367884;19;20036;-74
2023/07/29 02:14:01;;;;;;;7.95;5.05;;;;;;;;;;7367466;19;20007;-74
2023/07/29 02:16:26;;;;;;;8.43;4.78;;;;;;;;;;7388753;19;20017;-74
2023/07/29 02:18:52;;;;;;;7.93;4.65;;;;;;;;;;7364909;19;20350;-73
2023/07/29 02:21:17;;;;;;;8.43;4.93;;;;;;;;;;7367229;19;20002;-72
2023/07/29 02:23:42;;;;;;;11.02;5.20;;;;;;;;;;7366131;19;20014;-72
2023/07/29 02:26:08;;;;;;;10.38;5.30;;;;;;;;;;7366815;19;20006;-72
2023/07/29 02:28:33;;;;;;;10.07;5.00;;;;;;;;;;7389610;19;20457;-73
2023/07/29 02:31:21;;;;;;;11.85;4.78;;;;;;;;;;7367812;19;19998;-73
2023/07/29 02:33:46;;;;;;;8.15;4.65;;;;;;;;;;7367517;19;20007;-74
2023/07/29 02:36:13;;;;;;;6.78;4.13;;;;;;;;;;7370484;19;20871;-75
2023/07/29 02:38:39;;;;;;;8.65;4.07;;;;;;;;;;7373231;19;20421;-75
2023/07/29 02:41:04;;;;;;;6.60;3.83;;;;;;;;;;7369804;19;20504;-75
2023/07/29 02:43:29;;;;;;;6.93;3.35;;;;;;;;;;7392200;19;19998;-76
2023/07/29 02:45:55;;;;;;;7.53;3.97;;;;;;;;;;7368897;19;20002;-75
2023/07/29 02:48:20;;;;;;;7.03;4.13;;;;;;;;;;7373333;19;20018;-75
2023/07/29 02:50:45;;;;;;;7.97;4.15;;;;;;;;;;7375622;19;20003;-75
2023/07/29 02:53:11;;;;;;;8.50;4.50;;;;;;;;;;7373786;19;20041;-75
2023/07/29 02:55:39;;;;;;;7.20;4.32;;;;;;;;;;7394908;19;20003;-75
2023/07/29 02:58:05;;;;;;;7.88;4.63;;;;;;;;;;7374109;19;20010;-76
2023/07/29 03:00:31;;;;;;;7.45;5.05;;;;;;;;;;7374414;19;20014;-76
2023/07/29 03:02:56;;;;;;;8.18;5.25;;;;;;;;;;7375304;19;20002;-76
2023/07/29 03:05:22;;;;;;;8.05;4.85;;;;;;;;;;7372783;19;20074;-76
2023/07/29 03:07:47;;;;;;;9.77;5.65;;;;;;;;;;7395628;19;20010;-75
2023/07/29 03:10:14;;;;;;;9.23;5.88;;;;;;;;;;7374075;19;20035;-75
2023/07/29 03:12:39;;;;;;;7.28;5.13;;;;;;;;;;7373757;19;20011;-75
2023/07/29 03:15:05;;;;;;;13.40;5.43;;;;;;;;;;7371941;19;20011;-75
2023/07/29 03:17:30;;;;;;;8.48;5.47;;;;;;;;;;7374745;19;20006;-76
2023/07/29 03:19:55;;;;;;;9.05;5.40;;;;;;;;;;7396006;19;20010;-76
2023/07/29 03:22:21;;;;;;;7.15;5.22;;;;;;;;;;7376325;19;20010;-76
2023/07/29 03:24:46;;;;;;;8.73;5.55;;;;;;;;;;7374209;19;20018;-76
2023/07/29 03:27:11;;;;;;;8.35;5.70;;;;;;;;;;7376581;19;20018;-75
2023/07/29 03:29:37;;;;;;;11.25;5.78;;;;;;;;;;7375014;19;20693;-75
2023/07/29 03:32:02;;;;;;;10.30;6.20;;;;;;;;;;7373979;19;20057;-75
2023/07/29 03:34:28;;;;;;;8.98;5.32;;;;;;;;;;7393386;19;20092;-75
2023/07/29 03:36:54;;;;;;;9.73;6.40;;;;;;;;;;7374683;19;20015;-75
2023/07/29 03:39:19;;;;;;;9.20;6.07;;;;;;;;;;7374536;19;20081;-75
2023/07/29 03:41:44;;;;;;;8.90;6.25;;;;;;;;;;7374334;19;20015;-75
2023/07/29 03:44:10;;;;;;;8.57;5.85;;;;;;;;;;7372605;19;20544;-75
2023/07/29 03:46:35;;;;;;;8.80;5.70;;;;;;;;;;7394949;19;20006;-75
2023/07/29 03:49:00;;;;;;;8.45;5.85;;;;;;;;;;7373348;19;20006;-74
2023/07/29 03:51:26;;;;;;;10.20;6.20;;;;;;;;;;7373926;19;20014;-76
2023/07/29 03:53:51;;;;;;;9.65;5.97;;;;;;;;;;7371887;19;20111;-76
2023/07/29 03:56:16;;;;;;;8.05;5.20;;;;;;;;;;7370756;19;20017;-75
2023/07/29 03:58:43;;;;;;;8.82;5.70;;;;;;;;;;7392966;19;20078;-75
2023/07/29 04:01:09;;;;;;;9.27;5.95;;;;;;;;;;7366722;19;20341;-76
2023/07/29 04:03:34;;;;;;;7.95;5.72;;;;;;;;;;7369894;19;20002;-75
2023/07/29 04:06:00;;;;;;;10.80;5.95;;;;;;;;;;7373489;19;20086;-76
2023/07/29 04:08:25;;;;;;;8.93;5.47;;;;;;;;;;7373222;19;20006;-75
2023/07/29 04:10:51;;;;;;;8.30;5.45;;;;;;;;;;7395432;19;20011;-75
2023/07/29 04:13:17;;;;;;;8.57;6.43;;;;;;;;;;7370969;19;20575;-75
2023/07/29 04:15:42;;;;;;;8.70;6.00;;;;;;;;;;7371035;19;20192;-75
2023/07/29 04:18:07;;;;;;;9.55;6.55;;;;;;;;;;7370897;19;20091;-76
2023/07/29 04:20:33;;;;;;;11.57;6.55;;;;;;;;;;7370041;19;20078;-77
2023/07/29 04:22:59;;;;;;;10.85;6.65;;;;;;;;;;7374239;19;20366;-74
2023/07/29 04:25:24;;;;;;;8.30;6.05;;;;;;;;;;7388251;19;19995;-76
2023/07/29 04:27:49;;;;;;;8.07;5.95;;;;;;;;;;7369084;19;20460;-75
2023/07/29 04:30:15;;;;;;;8.15;6.07;;;;;;;;;;7372293;19;20007;-75
2023/07/29 04:32:42;;;;;;;12.15;6.70;;;;;;;;;;7370858;19;20497;-75
2023/07/29 04:35:08;;;;;;;9.00;6.28;;;;;;;;;;7367375;19;20007;-75
2023/07/29 04:37:33;;;;;;;8.73;6.38;;;;;;;;;;7393167;19;20014;-77
2023/07/29 04:40:00;;;;;;;9.68;7.30;;;;;;;;;;7372302;19;20038;-76
2023/07/29 04:42:25;;;;;;;9.55;7.07;;;;;;;;;;7380640;19;20105;-68
2023/07/29 04:44:50;;;;;;;10.10;6.68;;;;;;;;;;7379482;19;20038;-70
2023/07/29 04:47:16;;;;;;;12.82;6.80;;;;;;;;;;7380245;19;20030;-69
2023/07/29 04:49:41;;;;;;;8.80;6.47;;;;;;;;;;7402167;19;20036;-70
2023/07/29 04:52:07;;;;;;;8.68;6.30;;;;;;;;;;7379461;19;20023;-70
2023/07/29 04:54:32;;;;;;;9.75;6.05;;;;;;;;;;7379991;19;20002;-69
2023/07/29 04:56:57;;;;;;;11.05;6.47;;;;;;;;;;7385000;19;20010;-69
2023/07/29 04:59:23;;;;;;;9.20;6.47;;;;;;;;;;7384439;19;20010;-69
2023/07/29 05:01:48;;;;;;;9.90;7.00;;;;;;;;;;7396260;19;20010;-75
2023/07/29 05:04:14;;;;;;;14.52;7.35;;;;;;;;;;7367341;19;20075;-75
2023/07/29 05:06:39;;;;;;;11.48;7.50;;;;;;;;;;7368954;19;20006;-75
2023/07/29 05:09:15;;;;;;;10.93;7.28;;;;;;;;;;7368826;19;20692;-77
2023/07/29 05:11:41;;;;;;;9.40;6.90;;;;;;;;;;7368925;19;20597;-77
2023/07/29 05:14:07;;;;;;;9.00;6.50;;;;;;;;;;7368187;19;19999;-77
2023/07/29 05:16:32;;;;;;;9.07;6.47;;;;;;;;;;7388748;19;20002;-77
2023/07/29 05:18:57;;;;;;;10.00;6.90;;;;;;;;;;7371290;19;20024;-75
2023/07/29 05:21:23;;;;;;;9.55;6.38;;;;;;;;;;7372126;19;20023;-75
2023/07/29 05:23:48;;;;;;;8.75;6.13;;;;;;;;;;7372719;19;20010;-76
2023/07/29 05:26:13;;;;;;;8.38;5.55;;;;;;;;;;7372749;19;19995;-76
2023/07/29 05:28:39;;;;;;;8.75;5.57;;;;;;;;;;7396715;19;20009;-77
2023/07/29 05:31:04;;;;;;;8.25;5.00;;;;;;;;;;7371419;19;20010;-77
2023/07/29 05:33:29;;;;;;;6.32;5.00;;;;;;;;;;7370864;19;20006;-77
2023/07/29 05:35:55;;;;;;;6.13;4.47;;;;;;;;;;7371595;19;20031;-77
2023/07/29 05:38:54;;;;;;;7.38;4.78;;;;;;;;;;7378885;19;20002;-77
2023/07/29 05:41:20;;;;;;;7.15;4.57;;;;;;;;;;7376448;19;20011;-77
2023/07/29 05:43:46;;;;;;;8.00;4.50;;;;;;;;;;7391643;19;20002;-71
2023/07/29 05:46:12;;;;;;;7.57;4.68;;;;;;;;;;7373125;19;20006;-70
2023/07/29 05:48:37;;;;;;;7.13;4.72;;;;;;;;;;7370215;19;20031;-69
2023/07/29 05:51:02;;;;;;;5.57;4.05;;;;;;;;;;7371686;19;20389;-69
2023/07/29 05:53:28;;;;;;;8.68;4.10;;;;;;;;;;7370309;19;20002;-70
2023/07/29 05:55:53;;;;;;;7.35;4.25;;;;;;;;;;7390491;19;19994;-70
2023/07/29 05:58:19;;;;;;;7.47;4.35;;;;;;;;;;7369326;19;20032;-70
2023/07/29 06:00:44;;;;;;;6.57;3.97;;;;;;;;;;7371172;19;20010;-70
2023/07/29 06:03:09;;;;;;;8.05;4.10;;;;;;;;;;7369582;19;20013;-70
2023/07/29 06:05:35;;;;;;;5.45;3.42;;;;;;;;;;7371504;19;20041;-70
2023/07/29 06:08:00;;;;;;;6.03;4.10;;;;;;;;;;7372844;19;19998;-70
2023/07/29 06:10:26;;;;;;;9.77;4.43;;;;;;;;;;7394271;19;20491;-71
2023/07/29 06:12:51;;;;;;;7.03;4.65;;;;;;;;;;7371917;19;20019;-70
2023/07/29 06:15:17;;;;;;;8.45;4.60;;;;;;;;;;7371423;19;20070;-70
2023/07/29 06:17:42;;;;;;;8.02;4.50;;;;;;;;;;7372094;19;20710;-70
2023/07/29 06:20:08;;;;;;;7.13;4.03;;;;;;;;;;7373659;19;19998;-69
2023/07/29 06:22:34;;;;;;;6.35;3.83;;;;;;;;;;7391108;19;20467;-70
2023/07/29 06:24:59;;;;;;;7.50;3.92;;;;;;;;;;7368162;19;20030;-68
2023/07/29 06:27:25;;;;;;;6.50;4.03;;;;;;;;;;7372089;19;20405;-70
2023/07/29 06:29:50;;;;;;;8.07;3.85;;;;;;;;;;7371078;19;20010;-69
2023/07/29 06:32:16;;;;;;;6.65;3.72;;;;;;;;;;7371376;19;20042;-70
2023/07/29 06:34:41;;;;;;;6.28;4.05;;;;;;;;;;7390344;19;20010;-69
2023/07/29 06:37:07;;;;;;;6.55;4.07;;;;;;;;;;7369549;19;20020;-70
2023/07/29 06:39:32;;;;;;;7.60;4.00;;;;;;;;;;7367121;19;20086;-70
2023/07/29 06:41:57;;;;;;;8.63;4.20;;;;;;;;;;7367061;19;20011;-70
2023/07/29 06:44:23;;;;;;;9.65;4.57;;;;;;;;;;7365860;19;20010;-70
2023/07/29 06:46:48;;;;;;;9.27;4.38;;;;;;;;;;7389879;19;20005;-70
2023/07/29 06:49:13;;;;;;;7.95;4.32;;;;;;;;;;7366876;19;20007;-70
2023/07/29 06:51:39;;;;;;;6.72;4.70;;;;;;;;;;7367173;19;20006;-70
2023/07/29 06:54:04;;;;;;;6.90;4.43;;;;;;;;;;7367180;19;20014;-70
2023/07/29 06:56:30;;;;;;;6.65;4.38;;;;;;;;;;7368463;19;20007;-70
2023/07/29 06:58:55;;;;;;;7.18;4.45;;;;;;;;;;7393437;19;20014;-71
2023/07/29 07:01:20;;;;;;;8.73;4.60;;;;;;;;;;7372912;19;20041;-70
2023/07/29 07:03:46;;;;;;;8.10;4.22;;;;;;;;;;7372253;19;20078;-70
2023/07/29 07:06:11;;;;;;;5.90;4.30;;;;;;;;;;7374998;19;20010;-70
2023/07/29 07:08:36;;;;;;;12.27;4.97;;;;;;;;;;7374416;19;20002;-70
2023/07/29 07:11:02;;;;;;;8.68;4.43;;;;;;;;;;7375414;19;20373;-70
2023/07/29 07:13:27;;;;;;;8.85;5.28;;;;;;;;;;7398428;19;20006;-70
2023/07/29 07:15:56;;;;;;;8.10;5.20;;;;;;;;;;7379975;19;20002;-70
2023/07/29 07:18:24;;;;;;;7.70;5.15;;;;;;;;;;7380434;19;20010;-70
2023/07/29 07:20:50;;;;;;;9.60;4.90;;;;;;;;;;7374512;19;20464;-70
2023/07/29 07:23:16;;;;;;;8.00;5.10;;;;;;;;;;7372756;19;19999;-70
2023/07/29 07:25:44;;;;;;;7.15;4.68;;;;;;;;;;7396826;19;20365;-70
2023/07/29 07:28:10;;;;;;;7.40;4.18;;;;;;;;;;7375144;19;19999;-69
2023/07/29 07:30:35;;;;;;;7.80;4.22;;;;;;;;;;7374138;19;20010;-70
2023/07/29 07:33:01;;;;;;;5.93;3.70;;;;;;;;;;7372680;19;20010;-69
2023/07/29 07:35:26;;;;;;;7.10;3.85;;;;;;;;;;7376583;19;20006;-69
2023/07/29 07:37:51;;;;;;;5.88;3.30;;;;;;;;;;7401966;19;20062;-69
2023/07/29 07:40:17;;;;;;;5.38;2.97;;;;;;;;;;7378287;19;20520;-68
2023/07/29 07:42:42;;;;;;;5.32;2.53;;;;;;;;;;7378441;19;20007;-70
2023/07/29 07:45:08;;;;;;;5.05;2.58;;;;;;;;;;7376539;19;20025;-70
2023/07/29 07:47:33;;;;;;;5.38;2.78;;;;;;;;;;7376891;19;20017;-69
2023/07/29 07:49:58;;;;;;;5.20;2.45;;;;;;;;;;7388134;19;20409;-69
2023/07/29 07:52:23;;;;;;;4.82;2.50;;;;;;;;;;7392107;19;20037;-70
2023/07/29 07:54:54;;;;;;;6.82;2.70;;;;;;;;;;7374430;19;20006;-69
2023/07/29 07:57:20;;;;;;;;;;;;;;;;;;7378643;19;19999;-69
2023/07/29 07:59:45;;;;;;;4.18;2.45;;;;;;;;;;7378396;19;19922;-69
2023/07/29 08:02:11;;;;;;;4.30;2.40;;;;;;;;;;7378513;19;20001;-69
2023/07/29 08:04:36;;;;;;;3.72;2.25;;;;;;;;;;7397661;19;20058;-69
2023/07/29 08:07:01;;;;;;;4.25;1.60;;;;;;;;;;7377605;19;19999;-69
2023/07/29 08:09:27;;;;;;;4.10;1.60;;;;;;;;;;7378510;19;19998;-68
2023/07/29 08:11:52;;;;;;;2.05;1.42;;;;;;;;;;7376626;19;20094;-68
2023/07/29 08:14:17;;;;;;;1.90;1.40;;;;;;;;;;7377025;19;20007;-69
2023/07/29 08:16:42;;;;;;;13.13;7.30;;;;;;;;;;7397672;19;20023;-69
2023/07/29 08:19:09;;;;;;;24.85;14.43;;;;;;;;;;7377465;19;19999;-69
2023/07/29 08:21:35;;;;;;;4.82;2.13;;;;;;;;;;7378167;19;20027;-69
2023/07/29 08:24:00;;;;;;;2.47;1.40;;;;;;;;;;7375529;19;20078;-70
2023/07/29 08:26:25;;;;;;;2.83;1.40;;;;;;;;;;7376710;19;19998;-68
2023/07/29 08:28:51;;;;;;;3.50;1.65;;;;;;;;;;7398473;19;20038;-68
2023/07/29 08:31:16;;;;;;;3.67;1.58;;;;;;;;;;7376561;19;20014;-68
2023/07/29 08:33:41;;;;;;;2.08;1.30;;;;;;;;;;7372682;19;20007;-69
2023/07/29 08:36:07;;;;;;;2.70;1.48;;;;;;;;;;7366828;19;20479;-69
2023/07/29 08:38:32;;;;;;;1.40;1.30;;;;;;;;;;7369956;19;20010;-71
2023/07/29 08:41:16;;;;;;;3.75;1.40;;;;;;;;;;7392551;19;20014;-69
2023/07/29 08:43:58;;;;;;;1.65;1.20;;;;;;;;;;7390909;19;20495;-69
2023/07/29 08:46:24;;;;;;;10.07;4.75;;;;;;;;;;7369536;19;20046;-69
2023/07/29 08:48:50;;;;;;;11.32;6.80;;;;;;;;;;7374203;19;20031;-70
2023/07/29 08:51:16;;;;;;;4.32;2.40;;;;;;;;;;7375805;19;20093;-70
2023/07/29 08:53:42;;;;;;;4.88;1.40;;;;;;;;;;7372275;19;20094;-70
2023/07/29 08:56:07;;;;;;;3.17;1.50;;;;;;;;;;7374047;19;20011;-69
2023/07/29 08:58:33;;;;;;;2.80;1.50;;;;;;;;;;7393136;19;20006;-69
2023/07/29 09:01:00;;;;;;;2.22;1.27;;;;;;;;;;7373300;19;20011;-69
2023/07/29 09:03:25;;;;;;;2.95;1.80;;;;;;;;;;7373939;19;20020;-69
2023/07/29 09:05:51;;;;;;;2.13;1.60;;;;;;;;;;7372694;19;20010;-70
2023/07/29 09:08:17;;;;;;;2.30;1.40;;;;;;;;;;7369645;19;20346;-69
2023/07/29 09:10:42;;;;;;;1.85;1.23;;;;;;;;;;7393847;19;20556;-69
2023/07/29 09:13:08;;;;;;;1.98;1.25;;;;;;;;;;7370260;19;20014;-69
2023/07/29 09:15:35;;;;;;;4.03;1.33;;;;;;;;;;7372907;19;20015;-69
2023/07/29 09:18:10;;;;;;;2.47;1.48;;;;;;;;;;7371541;19;20020;-68
2023/07/29 09:20:36;;;;;;;2.22;1.50;;;;;;;;;;7369949;19;20015;-68
2023/07/29 09:23:01;;;;;;;2.80;1.75;;;;;;;;;;7371514;19;20649;-68
2023/07/29 09:25:28;;;;;;;2.55;1.50;;;;;;;;;;7392786;19;20010;-68
2023/07/29 09:28:00;;;;;;;3.13;1.40;;;;;;;;;;7372697;19;20010;-69
2023/07/29 09:30:26;;;;;;;2.50;1.50;;;;;;;;;;7376213;19;20772;-69
2023/07/29 09:32:58;;;;;;;2.25;1.30;;;;;;;;;;7372328;19;20014;-69
2023/07/29 09:35:25;;;;;;;1.77;1.30;;;;;;;;;;7369694;19;20370;-69
2023/07/29 09:37:51;;;;;;;2.63;1.40;;;;;;;;;;7393091;19;20006;-69
2023/07/29 09:40:17;;;;;;;2.08;1.63;;;;;;;;;;7369696;19;20098;-69
2023/07/29 09:42:50;;;;;;;2.85;1.50;;;;;;;;;;7371364;19;20412;-69
2023/07/29 09:45:26;;;;;;;4.25;1.63;;;;;;;;;;7369697;19;20548;-69
2023/07/29 09:47:56;;;;;;;21.85;13.45;;;;;;;;;;7371545;19;20010;-69
2023/07/29 09:50:25;;;;;;;5.03;1.60;;;;;;;;;;7371042;19;20038;-70
2023/07/29 09:52:52;;;;;;;4.65;2.08;;;;;;;;;;7395471;19;20010;-69
2023/07/29 09:55:18;;;;;;;2.70;1.65;;;;;;;;;;7366861;19;20014;-70
2023/07/29 09:57:44;;;;;;;2.08;1.63;;;;;;;;;;7371930;19;20011;-69
2023/07/29 10:00:11;;;;;;;3.97;1.60;;;;;;;;;;7370282;19;20014;-69
2023/07/29 10:02:42;;;;;;;2.72;1.40;;;;;;;;;;7370892;19;20014;-69
2023/07/29 10:05:09;;;;;;;2.40;1.63;;;;;;;;;;7368767;19;20010;-69
2023/07/29 10:07:37;;;;;;;5.32;1.52;;;;;;;;;;7393714;19;20014;-70
2023/07/29 10:10:07;;;;;;;2.65;1.67;;;;;;;;;;7374411;19;20006;-69
2023/07/29 10:12:34;;;;;;;4.07;1.50;;;;;;;;;;7373347;19;20077;-70
2023/07/29 10:15:05;;;;;;;3.47;1.70;;;;;;;;;;7374703;19;20006;-70
2023/07/29 10:17:36;;;;;;;2.90;1.70;;;;;;;;;;7372258;19;20102;-70
2023/07/29 10:20:06;;;;;;;2.85;1.70;;;;;;;;;;7372935;19;20051;-69
2023/07/29 10:22:42;;;;;;;3.28;1.48;;;;;;;;;;7393627;19;20516;-70
2023/07/29 10:25:18;;;;;;;3.22;1.60;;;;;;;;;;7373307;19;20093;-69
2023/07/29 10:27:47;;;;;;;2.17;1.60;;;;;;;;;;7372402;19;20025;-69
2023/07/29 10:30:15;;;;;;;2.55;1.60;;;;;;;;;;7371446;19;20006;-69
2023/07/29 10:32:44;;;;;;;15.65;9.18;;;;;;;;;;7371884;19;20077;-69
2023/07/29 10:35:11;;;;;;;10.10;6.03;;;;;;;;;;7372418;19;20017;-69
2023/07/29 10:37:37;;;;;;;2.33;1.60;;;;;;;;;;7392672;19;20552;-69
2023/07/29 10:40:07;;;;;;;1.92;1.63;;;;;;;;;;7369946;19;20575;-69
2023/07/29 10:42:33;;;;;;;2.10;1.60;;;;;;;;;;7373001;19;20036;-69
2023/07/29 10:44:58;;;;;;;4.28;1.60;;;;;;;;;;7373749;19;20387;-69
2023/07/29 10:47:28;;;;;;;3.33;1.60;;;;;;;;;;7371534;19;20011;-69
2023/07/29 10:49:58;;;;;;;4.22;1.60;;;;;;;;;;7394780;19;20108;-69
2023/07/29 10:52:39;;;;;;;4.07;1.70;;;;;;;;;;7377460;19;20119;-68
2023/07/29 10:55:24;;;;;;;2.55;1.55;;;;;;;;;;7372017;19;20058;-69
2023/07/29 10:57:49;;;;;;;2.08;1.55;;;;;;;;;;7371870;19;20023;-69
2023/07/29 11:00:16;;;;;;;2.85;1.90;;;;;;;;;;7373302;19;20014;-69
2023/07/29 11:02:41;;;;;;;1.63;1.40;;;;;;;;;;7376502;19;20010;-68
2023/07/29 11:05:16;;;;;;;2.92;1.83;;;;;;;;;;7368379;19;20028;-67
2023/07/29 11:07:47;;;;;;;3.80;1.70;;;;;;;;;;7405448;19;20015;-68
2023/07/29 11:10:13;;;;;;;4.13;1.77;;;;;;;;;;7383380;19;20022;-68
2023/07/29 11:12:42;;;;;;;2.92;1.70;;;;;;;;;;7383328;19;20086;-68
2023/07/29 11:15:10;;;;;;;4.90;2.08;;;;;;;;;;7383046;19;20006;-69
2023/07/29 11:17:39;;;;;;;2.67;1.58;;;;;;;;;;7383101;19;20007;-67
2023/07/29 11:20:07;;;;;;;2.42;1.67;;;;;;;;;;7378486;19;19998;-68
2023/07/29 11:22:32;;;;;;;2.80;1.40;;;;;;;;;;7399992;19;20015;-67
2023/07/29 11:24:58;;;;;;;2.55;1.63;;;;;;;;;;7375707;19;20039;-68
2023/07/29 11:27:26;;;;;;;3.65;1.60;;;;;;;;;;7378038;19;20010;-68
2023/07/29 11:29:57;;;;;;;5.15;1.60;;;;;;;;;;7380029;19;20478;-68
2023/07/29 11:32:24;;;;;;;2.47;1.55;;;;;;;;;;7382727;19;20707;-68
2023/07/29 11:34:49;;;;;;;3.00;1.70;;;;;;;;;;7402799;19;20037;-68
2023/07/29 11:37:14;;;;;;;2.75;1.55;;;;;;;;;;7382151;19;20037;-68
2023/07/29 11:39:41;;;;;;;3.42;1.90;;;;;;;;;;7381256;19;20018;-67
2023/07/29 11:42:06;;;;;;;3.38;1.58;;;;;;;;;;7385863;19;20010;-68
2023/07/29 11:44:32;;;;;;;2.30;1.50;;;;;;;;;;7385518;19;20011;-68
2023/07/29 11:46:57;;;;;;;4.30;2.50;;;;;;;;;;7402741;19;19994;-68
2023/07/29 11:49:22;;;;;;;4.95;2.17;;;;;;;;;;7381121;19;20276;-68
2023/07/29 11:51:48;;;;;;;4.13;1.80;;;;;;;;;;7382526;19;20011;-68
2023/07/29 11:54:13;;;;;;;2.25;1.40;;;;;;;;;;7383154;19;20007;-68
2023/07/29 11:56:38;;;;;;;2.28;1.58;;;;;;;;;;7381217;19;20010;-68
2023/07/29 11:59:04;;;;;;;2.72;1.63;;;;;;;;;;7382979;19;20015;-68
2023/07/29 12:01:30;;;;;;;2.22;1.67;;;;;;;;;;7405293;19;20606;-68
2023/07/29 12:03:57;;;;;;;1.83;1.60;;;;;;;;;;7376211;19;20006;-69
2023/07/29 12:06:24;;;;;;;2.08;1.70;;;;;;;;;;7381539;19;20017;-69
2023/07/29 12:08:50;;;;;;;2.67;1.63;;;;;;;;;;7381538;19;20500;-69
2023/07/29 12:11:16;;;;;;;2.50;1.67;;;;;;;;;;7379961;19;20007;-68
2023/07/29 12:13:42;;;;;;;3.58;1.98;;;;;;;;;;7395135;19;20469;-75
2023/07/29 12:16:07;;;;;;;3.80;1.70;;;;;;;;;;7370879;19;20014;-74
2023/07/29 12:18:33;;;;;;;4.80;1.70;;;;;;;;;;7368580;19;20111;-74
2023/07/29 12:21:00;;;;;;;4.70;1.60;;;;;;;;;;7368579;19;20058;-74
2023/07/29 12:23:25;;;;;;;2.30;1.50;;;;;;;;;;7370369;19;20011;-74
2023/07/29 12:26:00;;;;;;;3.08;1.50;;;;;;;;;;7391844;19;20098;-74
2023/07/29 12:28:26;;;;;;;3.45;1.73;;;;;;;;;;7368946;19;20013;-74
2023/07/29 12:30:55;;;;;;;3.55;1.75;;;;;;;;;;7374282;19;20018;-73
2023/07/29 12:33:32;;;;;;;2.08;1.50;;;;;;;;;;7371560;19;20032;-67
2023/07/29 12:35:57;;;;;;;2.80;1.50;;;;;;;;;;7376040;19;20513;-67
2023/07/29 12:38:22;;;;;;;2.60;1.70;;;;;;;;;;7375049;19;20066;-67
2023/07/29 12:40:48;;;;;;;2.47;1.63;;;;;;;;;;7397367;19;20010;-67
2023/07/29 12:43:13;;;;;;;2.17;1.60;;;;;;;;;;7379873;19;20026;-67
2023/07/29 12:45:42;;;;;;;3.28;1.50;;;;;;;;;;7377372;19;20035;-67
2023/07/29 12:48:08;;;;;;;1.52;1.42;;;;;;;;;;7378771;19;20011;-67
2023/07/29 12:50:33;;;;;;;2.10;1.67;;;;;;;;;;7380812;19;20010;-67
2023/07/29 12:52:58;;;;;;;3.15;1.58;;;;;;;;;;7389008;19;20014;-65
2023/07/29 12:55:24;;;;;;;2.53;1.60;;;;;;;;;;7391020;19;20014;-65
2023/07/29 12:57:50;;;;;;;2.03;1.58;;;;;;;;;;7377374;19;20010;-65
2023/07/29 13:00:15;;;;;;;2.00;1.50;;;;;;;;;;7376217;19;20078;-66
2023/07/29 13:02:41;;;;;;;2.97;1.70;;;;;;;;;;7380534;19;20027;-65
2023/07/29 13:05:11;;;;;;;2.90;1.73;;;;;;;;;;7378016;19;20074;-65
2023/07/29 13:07:38;;;;;;;2.33;1.52;;;;;;;;;;7398677;19;20324;-66
2023/07/29 13:10:04;;;;;;;2.55;1.63;;;;;;;;;;7375401;19;20014;-66
2023/07/29 13:12:29;;;;;;;2.75;1.70;;;;;;;;;;7373779;19;20007;-66
2023/07/29 13:14:55;;;;;;;3.22;1.58;;;;;;;;;;7375588;19;20532;-66
2023/07/29 13:17:21;;;;;;;5.80;1.70;;;;;;;;;;7373641;19;20017;-66
2023/07/29 13:19:47;;;;;;;2.78;1.55;;;;;;;;;;7397466;19;20006;-65
2023/07/29 13:22:12;;;;;;;2.05;1.60;;;;;;;;;;7374634;19;20014;-65
2023/07/29 13:24:37;;;;;;;2.60;1.60;;;;;;;;;;7375095;19;20014;-65
2023/07/29 13:27:03;;;;;;;3.20;1.75;;;;;;;;;;7371477;19;20467;-72
2023/07/29 13:29:28;;;;;;;3.53;1.70;;;;;;;;;;7372651;19;20017;-72
2023/07/29 13:31:54;;;;;;;2.58;1.40;;;;;;;;;;7395185;19;20006;-72
2023/07/29 13:34:19;;;;;;;2.78;1.63;;;;;;;;;;7372994;19;20044;-72
2023/07/29 13:36:44;;;;;;;4.07;1.70;;;;;;;;;;7375193;19;20014;-72
2023/07/29 13:39:10;;;;;;;4.43;1.70;;;;;;;;;;7375317;19;20410;-72
2023/07/29 13:41:35;;;;;;;4.18;1.80;;;;;;;;;;7375326;19;20236;-72
2023/07/29 13:44:00;;;;;;;3.90;1.70;;;;;;;;;;7373865;19;20006;-72
2023/07/29 13:46:26;;;;;;;2.45;1.70;;;;;;;;;;7396823;19;20279;-72
2023/07/29 13:48:51;;;;;;;3.53;1.70;;;;;;;;;;7374741;19;20010;-72
2023/07/29 13:51:16;;;;;;;2.78;1.60;;;;;;;;;;7374320;19;20006;-72
2023/07/29 13:53:42;;;;;;;2.15;1.50;;;;;;;;;;7372310;19;20006;-71
2023/07/29 13:56:07;;;;;;;2.78;1.60;;;;;;;;;;7375066;19;20006;-72
2023/07/29 13:58:32;;;;;;;2.10;1.58;;;;;;;;;;7398690;19;20022;-71
2023/07/29 14:00:58;;;;;;;2.35;1.63;;;;;;;;;;7379773;19;20009;-72
2023/07/29 14:03:23;;;;;;;2.72;1.80;;;;;;;;;;7373688;19;20077;-73
2023/07/29 14:05:48;;;;;;;7.05;1.80;;;;;;;;;;7376123;19;20434;-72
2023/07/29 14:08:14;;;;;;;2.20;1.50;;;;;;;;;;7375179;19;20704;-72
2023/07/29 14:10:39;;;;;;;5.25;2.60;;;;;;;;;;7396211;19;20387;-72
2023/07/29 14:13:04;;;;;;;15.93;12.27;;;;;;;;;;7373567;19;20070;-72
2023/07/29 14:15:32;;;;;;;2.33;1.60;;;;;;;;;;7373597;19;20037;-74
2023/07/29 14:17:57;;;;;;;2.38;1.70;;;;;;;;;;7375078;19;20010;-72
2023/07/29 14:20:23;;;;;;;2.55;1.65;;;;;;;;;;7372190;19;20036;-74
2023/07/29 14:22:49;;;;;;;4.27;1.87;;;;;;;;;;7396168;19;20013;-73
2023/07/29 14:25:14;;;;;;;2.50;1.83;;;;;;;;;;7369830;19;20313;-72
2023/07/29 14:27:40;;;;;;;2.50;1.67;;;;;;;;;;7372433;19;20073;-73
2023/07/29 14:30:06;;;;;;;2.90;1.70;;;;;;;;;;7370034;19;20021;-75
2023/07/29 14:32:32;;;;;;;3.13;1.70;;;;;;;;;;7369084;19;20024;-74
2023/07/29 14:34:57;;;;;;;4.25;1.80;;;;;;;;;;7389089;19;20027;-74
2023/07/29 14:37:22;;;;;;;3.78;1.70;;;;;;;;;;7368588;19;20028;-74
2023/07/29 14:39:48;;;;;;;2.28;1.70;;;;;;;;;;7368597;19;20046;-74